Time;durP1;ratioP1;P1;durP2;ratioP2;P2;SDS_P1;SDS_P2;PMS_P1;PMS_P2;Temp;Humidity;BMP_temperature;BMP_pressure;BME280_temperature;BME280_humidity;BME280_pressure;Samples;Min_cycle;Max_cycle;Signal;HPM_P1;HPM_P2
2023/11/25 00:00:43;;;;;;;3.00;1.30;;;;;;;0.46;80.15;94563.98;108849;1265;25303;-80
2023/11/25 00:03:37;;;;;;;4.40;1.60;;;;;;;0.40;80.69;94563.60;108805;1272;22531;-80
2023/11/25 00:06:11;;;;;;;4.00;1.60;;;;;;;0.36;80.80;94563.88;108826;1250;22540;-81
2023/11/25 00:08:42;;;;;;;2.30;1.60;;;;;;;0.34;81.16;94555.60;108894;1272;23676;-80
2023/11/25 00:11:16;;;;;;;3.60;2.00;;;;;;;0.33;80.88;94554.52;108821;1266;23880;-81
2023/11/25 00:13:47;;;;;;;4.30;1.90;;;;;;;0.34;81.21;94549.09;108836;1272;23904;-80
2023/11/25 00:16:18;;;;;;;8.20;2.40;;;;;;;0.34;81.04;94547.27;108842;1272;22521;-81
2023/11/25 00:18:49;;;;;;;4.10;2.10;;;;;;;0.32;81.46;94555.92;108890;1272;22589;-80
2023/11/25 00:21:20;;;;;;;5.00;2.40;;;;;;;0.31;81.63;94555.56;108797;1269;25591;-80
2023/11/25 00:23:55;;;;;;;3.90;1.90;;;;;;;0.29;81.69;94550.52;108888;1270;25287;-80
2023/11/25 00:26:26;;;;;;;5.50;2.30;;;;;;;0.28;81.42;94559.20;108843;1266;25304;-80
2023/11/25 00:28:58;;;;;;;6.20;2.70;;;;;;;0.28;81.68;94561.14;108863;1272;22576;-80
2023/11/25 00:31:33;;;;;;;7.70;2.90;;;;;;;0.28;81.94;94564.41;108856;1272;23336;-80
2023/11/25 00:34:07;;;;;;;4.10;2.20;;;;;;;0.26;81.94;94561.75;108867;1269;22536;-80
2023/11/25 00:36:38;;;;;;;4.00;1.80;;;;;;;0.25;82.24;94565.03;108842;1251;22525;-80
2023/11/25 00:39:12;;;;;;;6.10;2.50;;;;;;;0.26;82.49;94570.98;108843;1264;22527;-80
2023/11/25 00:41:42;;;;;;;5.30;2.50;;;;;;;0.27;82.48;94569.00;108860;1266;23904;-80
2023/11/25 00:44:13;;;;;;;3.50;2.10;;;;;;;0.27;82.60;94568.47;108879;1272;22518;-80
2023/11/25 00:46:47;;;;;;;6.90;2.70;;;;;;;0.25;82.62;94563.58;108896;1272;23063;-80
2023/11/25 00:49:22;;;;;;;1.10;1.00;;;;;;;0.21;82.74;94556.25;108889;1272;24873;-80
2023/11/25 01:02:42;;;;;;;6.80;2.50;;;;;;;-0.04;84.01;94548.61;108851;1267;22527;-80
2023/11/25 01:05:14;;;;;;;5.20;2.70;;;;;;;-0.03;84.07;94537.83;108854;1272;22525;-80
2023/11/25 01:07:45;;;;;;;4.60;2.80;;;;;;;-0.02;84.27;94532.71;108823;1272;22517;-80
2023/11/25 01:10:18;;;;;;;3.60;2.50;;;;;;;-0.04;84.27;94530.06;108822;1272;22579;-81
2023/11/25 01:12:51;;;;;;;3.30;2.20;;;;;;;-0.06;84.24;94531.74;108848;1272;25433;-80
2023/11/25 01:15:25;;;;;;;2.10;1.60;;;;;;;-0.07;84.26;94535.96;108876;1272;23844;-80
2023/11/25 01:17:56;;;;;;;2.60;1.70;;;;;;;-0.07;84.57;94535.19;108840;1266;22508;-80
2023/11/25 01:20:34;;;;;;;5.20;2.00;;;;;;;-0.07;84.50;94534.13;108834;1269;24219;-80
2023/11/25 01:23:05;;;;;;;3.80;2.30;;;;;;;-0.07;84.90;94537.21;108855;1272;23813;-80
2023/11/25 01:25:36;;;;;;;4.30;2.30;;;;;;;-0.08;84.91;94540.08;108849;1269;22538;-80
2023/11/25 01:28:07;;;;;;;4.10;2.60;;;;;;;-0.12;85.00;94553.58;108882;1272;22540;-80
2023/11/25 01:30:39;;;;;;;3.90;2.60;;;;;;;-0.25;85.83;94549.88;108878;1272;25247;-80
2023/11/25 01:33:10;;;;;;;3.10;2.00;;;;;;;-0.37;86.26;94540.66;108840;1272;22724;-80
2023/11/25 01:35:41;;;;;;;3.90;2.10;;;;;;;-0.44;86.55;94536.59;108865;1272;22540;-81
2023/11/25 01:38:13;;;;;;;3.70;2.00;;;;;;;-0.52;86.81;94537.38;108823;1266;22524;-80
2023/11/25 01:40:44;;;;;;;3.70;2.00;;;;;;;-0.59;87.38;94537.31;108855;1272;23461;-81
2023/11/25 01:43:18;;;;;;;3.20;2.00;;;;;;;-0.68;87.44;94538.61;108852;1272;23970;-80
2023/11/25 01:45:53;;;;;;;3.50;2.00;;;;;;;-0.74;87.84;94536.87;108828;1266;22510;-80
2023/11/25 01:48:24;;;;;;;4.50;2.60;;;;;;;-0.81;88.28;94537.59;108828;1265;23315;-81
2023/11/25 01:50:56;;;;;;;4.80;2.50;;;;;;;-0.87;88.49;94534.19;108835;1272;24215;-80
2023/11/25 01:53:30;;;;;;;6.70;3.10;;;;;;;-0.91;88.50;94531.59;108878;1272;22653;-80
2023/11/25 01:56:04;;;;;;;6.30;3.70;;;;;;;-0.95;88.64;94532.00;108861;1272;24244;-80
2023/11/25 01:58:40;;;;;;;3.20;2.30;;;;;;;-0.96;88.95;94533.92;108886;1272;22532;-80
2023/11/25 02:01:16;;;;;;;4.90;2.30;;;;;;;-0.95;90.01;94533.67;108909;1269;22523;-80
2023/11/25 02:03:49;;;;;;;6.00;1.40;;;;;;;-0.93;90.75;94541.88;108863;1272;23655;-80
2023/11/25 02:06:23;;;;;;;6.40;3.50;;;;;;;-0.90;91.40;94538.23;108875;1272;22547;-80
2023/11/25 02:08:56;;;;;;;4.90;3.00;;;;;;;-0.88;91.34;94538.86;108813;1263;22842;-80
2023/11/25 02:11:27;;;;;;;3.90;2.40;;;;;;;-0.87;91.50;94536.21;108833;1272;22537;-80
2023/11/25 02:14:00;;;;;;;3.90;2.80;;;;;;;-0.84;91.49;94535.61;108865;1272;22529;-80
2023/11/25 02:16:38;;;;;;;7.70;3.40;;;;;;;-0.80;91.88;94535.15;108850;1272;24257;-80
2023/11/25 02:19:12;;;;;;;4.80;2.80;;;;;;;-0.75;92.01;94533.28;108889;1272;24228;-80
2023/11/25 02:21:46;;;;;;;4.20;2.80;;;;;;;-0.72;92.07;94535.05;108827;1266;22541;-80
2023/11/25 02:24:26;;;;;;;5.50;2.20;;;;;;;-0.69;92.30;94537.36;108900;1250;22543;-80
2023/11/25 02:27:01;;;;;;;2.60;1.90;;;;;;;-0.67;92.79;94543.30;108848;1272;25433;-80
2023/11/25 02:29:35;;;;;;;3.80;1.90;;;;;;;-0.64;92.55;94542.56;108840;1266;24055;-80
2023/11/25 02:32:17;;;;;;;6.00;2.20;;;;;;;-0.60;93.57;94542.45;108854;1272;22986;-80
2023/11/25 02:34:49;;;;;;;3.70;1.80;;;;;;;-0.55;93.61;94539.83;108839;1272;22535;-80
2023/11/25 02:37:20;;;;;;;2.40;1.90;;;;;;;-0.52;93.91;94533.52;108831;1272;25499;-80
2023/11/25 02:39:56;;;;;;;9.40;3.30;;;;;;;-0.51;94.21;94531.08;108867;1272;22521;-81
2023/11/25 02:42:30;;;;;;;7.00;3.40;;;;;;;-0.53;93.90;94526.45;108830;1272;23973;-80
2023/11/25 02:45:01;;;;;;;4.90;2.70;;;;;;;-0.56;93.56;94523.30;108843;1266;22781;-81
2023/11/25 02:47:33;;;;;;;5.10;3.00;;;;;;;-0.59;93.63;94513.36;108830;1272;25265;-81
2023/11/25 02:50:05;;;;;;;6.00;2.90;;;;;;;-0.62;93.11;94509.67;108854;1272;25420;-80
2023/11/25 02:52:38;;;;;;;5.10;2.80;;;;;;;-0.66;93.12;94506.60;108904;1272;23707;-80
2023/11/25 02:55:10;;;;;;;5.00;2.70;;;;;;;-0.72;93.26;94507.16;108840;1266;22703;-81
2023/11/25 02:57:43;;;;;;;4.80;2.80;;;;;;;-0.77;93.13;94506.64;108879;1272;22856;-80
2023/11/25 03:00:27;;;;;;;5.40;2.80;;;;;;;-0.82;92.79;94512.58;108825;1266;22532;-80
2023/11/25 03:03:07;;;;;;;3.80;3.30;;;;;;;-0.87;93.01;94509.42;108861;1269;22634;-80
2023/11/25 03:05:42;;;;;;;2.80;1.70;;;;;;;-0.89;93.04;94512.70;108835;1266;22527;-80
2023/11/25 03:08:13;;;;;;;4.60;2.60;;;;;;;-0.88;93.29;94508.64;108833;1272;22521;-80
2023/11/25 03:10:47;;;;;;;3.80;1.80;;;;;;;-0.88;93.27;94512.55;108857;1264;23848;-80
2023/11/25 03:13:21;;;;;;;4.20;2.40;;;;;;;-0.86;93.78;94513.38;108887;1272;22525;-80
2023/11/25 03:15:53;;;;;;;4.60;2.60;;;;;;;-0.85;93.80;94514.42;108857;1272;25358;-80
2023/11/25 03:18:31;;;;;;;7.40;3.20;;;;;;;-0.83;93.93;94522.41;108836;1272;25412;-80
2023/11/25 03:21:02;;;;;;;3.60;2.40;;;;;;;-0.81;93.97;94529.22;108893;1266;25421;-80
2023/11/25 03:23:33;;;;;;;4.80;2.30;;;;;;;-0.78;94.18;94534.01;108820;1272;23128;-80
2023/11/25 03:26:04;;;;;;;4.60;2.70;;;;;;;-0.75;94.24;94534.47;108847;1250;22618;-80
2023/11/25 03:28:38;;;;;;;4.10;2.70;;;;;;;-0.71;94.22;94528.55;108887;1272;23729;-80
2023/11/25 03:31:12;;;;;;;3.80;2.30;;;;;;;-0.67;94.31;94540.89;108865;1272;22521;-80
2023/11/25 03:33:45;;;;;;;2.50;1.90;;;;;;;-0.66;94.39;94537.41;108849;1272;26177;-80
2023/11/25 03:36:17;;;;;;;4.60;2.30;;;;;;;-0.66;94.25;94536.42;108861;1272;25488;-80
2023/11/25 03:38:50;;;;;;;4.20;2.60;;;;;;;-0.65;94.85;94532.52;108874;1266;22513;-80
2023/11/25 03:41:23;;;;;;;3.00;2.40;;;;;;;-0.63;94.52;94537.77;108867;1272;24163;-79
2023/11/25 03:43:54;;;;;;;3.20;1.90;;;;;;;-0.62;94.46;94536.11;108851;1272;25734;-80
2023/11/25 03:46:25;;;;;;;5.30;3.30;;;;;;;-0.63;94.37;94534.23;108882;1272;22525;-80
2023/11/25 03:48:57;;;;;;;2.40;1.10;;;;;;;-0.61;94.49;94536.83;108828;1250;22537;-81
2023/11/25 03:51:29;;;;;;;6.00;2.50;;;;;;;-0.56;94.87;94530.91;108792;1269;22517;-80
2023/11/25 03:54:05;;;;;;;3.70;2.40;;;;;;;-0.51;94.69;94536.17;108825;1272;24140;-80
2023/11/25 03:56:36;;;;;;;4.00;2.40;;;;;;;-0.52;94.47;94534.61;108855;1266;22510;-80
2023/11/25 03:59:10;;;;;;;3.40;2.30;;;;;;;-0.51;94.63;94538.10;108839;1269;23973;-81
2023/11/25 04:01:44;;;;;;;4.90;3.10;;;;;;;-0.50;94.43;94543.20;108857;1272;25240;-80
2023/11/25 04:04:18;;;;;;;2.70;2.30;;;;;;;-0.48;94.39;94544.08;108765;1266;23881;-80
2023/11/25 04:06:49;;;;;;;2.60;1.30;;;;;;;-0.47;94.11;94539.40;108878;1272;22544;-80
2023/11/25 04:09:20;;;;;;;3.10;2.30;;;;;;;-0.47;94.68;94533.66;108846;1264;23779;-80
2023/11/25 04:11:53;;;;;;;2.30;1.70;;;;;;;-0.48;94.25;94526.70;108874;1272;22532;-80
2023/11/25 04:14:25;;;;;;;3.30;2.00;;;;;;;-0.50;94.06;94525.52;108843;1260;22528;-80
2023/11/25 04:16:57;;;;;;;2.60;1.40;;;;;;;-0.48;94.06;94531.91;108847;1265;22516;-80
2023/11/25 04:19:29;;;;;;;3.80;2.20;;;;;;;-0.47;93.81;94534.45;108805;1272;22520;-80
2023/11/25 04:22:01;;;;;;;3.10;2.10;;;;;;;-0.45;94.11;94536.68;108855;1272;28118;-80
2023/11/25 04:24:38;;;;;;;2.90;2.00;;;;;;;-0.44;93.92;94542.05;108870;1272;23384;-80
2023/11/25 04:27:09;;;;;;;4.70;3.10;;;;;;;-0.39;94.18;94547.33;108835;1266;24241;-81
2023/11/25 04:29:43;;;;;;;2.60;1.30;;;;;;;-0.33;93.98;94553.27;108843;1272;22550;-80
2023/11/25 04:32:15;;;;;;;2.70;1.60;;;;;;;-0.27;93.90;94555.82;108819;1272;22630;-80
2023/11/25 04:34:48;;;;;;;2.40;1.70;;;;;;;-0.22;94.03;94558.31;108891;1266;22556;-81
2023/11/25 04:37:22;;;;;;;4.00;2.00;;;;;;;-0.21;93.60;94554.71;108868;1269;24233;-81
2023/11/25 04:39:52;;;;;;;3.60;2.30;;;;;;;-0.23;93.49;94559.46;108828;1272;22518;-81
2023/11/25 04:42:24;;;;;;;3.80;2.70;;;;;;;-0.25;93.59;94562.53;108816;1272;24214;-80
2023/11/25 04:44:55;;;;;;;4.00;2.20;;;;;;;-0.28;93.37;94560.14;108895;1272;22986;-81
2023/11/25 04:47:29;;;;;;;4.20;2.60;;;;;;;-0.29;93.31;94566.94;108874;1272;22588;-81
2023/11/25 04:50:04;;;;;;;5.50;2.80;;;;;;;-0.30;93.45;94572.41;108813;1272;26625;-81
2023/11/25 04:52:42;;;;;;;3.70;2.50;;;;;;;-0.29;93.33;94583.60;108840;1272;26608;-80
2023/11/25 04:55:13;;;;;;;4.40;2.90;;;;;;;-0.30;93.53;94587.51;108853;1266;22715;-80
2023/11/25 04:57:50;;;;;;;1.50;0.80;;;;;;;-0.32;93.58;94596.36;108849;1264;22538;-81
2023/11/25 05:00:22;;;;;;;3.20;1.80;;;;;;;-0.36;93.49;94609.85;108837;1266;22620;-81
2023/11/25 05:02:55;;;;;;;2.60;1.00;;;;;;;-0.42;93.98;94616.70;108843;1272;22533;-80
2023/11/25 05:05:29;;;;;;;3.70;1.70;;;;;;;-0.50;94.20;94619.15;108852;1272;25259;-80
2023/11/25 05:08:08;;;;;;;3.40;2.10;;;;;;;-0.56;94.28;94613.83;108897;1266;22620;-80
2023/11/25 05:10:40;;;;;;;;;;;;;;;-0.59;94.58;94619.38;108831;1265;22503;-80
2023/11/25 05:13:11;;;;;;;4.80;3.20;;;;;;;-0.62;94.99;94617.44;108849;1269;24282;-80
2023/11/25 05:15:43;;;;;;;4.50;3.30;;;;;;;-0.62;95.19;94617.86;108868;1261;22524;-80
2023/11/25 05:18:17;;;;;;;4.10;2.20;;;;;;;-0.61;95.28;94617.96;108896;1266;22525;-80
2023/11/25 05:20:51;;;;;;;4.00;2.10;;;;;;;-0.57;95.77;94620.77;108873;1265;23936;-80
2023/11/25 05:23:22;;;;;;;1.90;1.60;;;;;;;-0.54;95.90;94625.08;108847;1272;24264;-79
2023/11/25 05:25:56;;;;;;;4.60;2.10;;;;;;;-0.53;96.16;94630.23;108814;1272;22937;-80
2023/11/25 05:28:27;;;;;;;4.10;2.20;;;;;;;-0.50;96.18;94628.98;108844;1272;22525;-80
2023/11/25 05:30:58;;;;;;;6.50;3.50;;;;;;;-0.49;96.07;94633.88;108847;1272;22550;-80
2023/11/25 05:33:29;;;;;;;5.80;3.30;;;;;;;-0.47;96.30;94633.20;108846;1272;23098;-80
2023/11/25 05:36:03;;;;;;;7.80;4.70;;;;;;;-0.43;96.45;94633.10;108850;1270;23295;-80
2023/11/25 05:38:35;;;;;;;8.70;5.20;;;;;;;-0.41;96.53;94638.70;108868;1266;22535;-80
2023/11/25 05:41:13;;;;;;;8.40;5.60;;;;;;;-0.41;96.51;94644.89;108901;1266;22637;-80
2023/11/25 05:43:46;;;;;;;6.90;4.60;;;;;;;-0.39;96.41;94654.00;108832;1266;24851;-80
2023/11/25 05:46:25;;;;;;;6.30;3.70;;;;;;;-0.37;96.58;94659.94;108830;1272;22521;-80
2023/11/25 05:48:58;;;;;;;3.40;2.10;;;;;;;-0.37;96.63;94660.88;108868;1272;22521;-80
2023/11/25 05:51:38;;;;;;;2.90;2.00;;;;;;;-0.37;96.59;94662.91;108884;1266;22566;-79
2023/11/25 05:54:14;;;;;;;1.60;1.40;;;;;;;-0.38;96.34;94663.89;108854;1272;27165;-80
2023/11/25 05:56:48;;;;;;;2.70;1.80;;;;;;;-0.40;96.04;94663.33;108870;1253;22705;-80
2023/11/25 05:59:19;;;;;;;2.30;1.50;;;;;;;-0.40;96.09;94664.41;108855;1269;26526;-80
2023/11/25 06:01:53;;;;;;;2.90;1.50;;;;;;;-0.42;96.01;94665.33;108849;1272;22529;-79
2023/11/25 06:04:31;;;;;;;1.30;0.80;;;;;;;-0.45;96.01;94662.51;108829;1272;25304;-80
2023/11/25 06:07:02;;;;;;;2.30;1.80;;;;;;;-0.45;96.40;94662.45;108836;1265;22520;-80
2023/11/25 06:09:37;;;;;;;3.80;2.10;;;;;;;-0.45;96.42;94664.13;108859;1266;22529;-80
2023/11/25 06:12:13;;;;;;;4.70;2.70;;;;;;;-0.46;96.17;94666.67;108874;1272;26568;-80
2023/11/25 06:14:55;;;;;;;8.20;4.70;;;;;;;-0.48;95.87;94672.19;108898;1266;24208;-80
2023/11/25 06:17:28;;;;;;;6.10;3.80;;;;;;;-0.48;96.19;94673.59;108827;1272;25454;-80
2023/11/25 06:19:59;;;;;;;6.70;3.80;;;;;;;-0.46;96.25;94681.61;108828;1272;27734;-80
2023/11/25 06:22:30;;;;;;;4.10;2.50;;;;;;;-0.45;96.14;94681.98;108813;1272;22608;-80
2023/11/25 06:25:05;;;;;;;3.50;2.60;;;;;;;-0.46;96.46;94688.95;108817;1269;23914;-80
2023/11/25 06:27:38;;;;;;;3.10;2.00;;;;;;;-0.46;96.48;94694.58;108860;1266;26668;-80
2023/11/25 06:30:12;;;;;;;2.60;2.10;;;;;;;-0.46;96.51;94700.04;108851;1272;25412;-80
2023/11/25 06:32:43;;;;;;;2.90;2.10;;;;;;;-0.47;96.44;94704.27;108861;1265;22710;-80
2023/11/25 06:35:15;;;;;;;3.10;2.00;;;;;;;-0.45;96.44;94711.80;108825;1272;22514;-80
2023/11/25 06:37:46;;;;;;;1.80;1.30;;;;;;;-0.45;96.29;94710.40;108842;1269;22524;-80
2023/11/25 06:40:24;;;;;;;2.90;2.10;;;;;;;-0.47;96.30;94714.98;108841;1272;22510;-81
2023/11/25 06:42:57;;;;;;;2.30;1.60;;;;;;;-0.48;96.74;94715.91;108841;1265;22514;-80
2023/11/25 06:45:31;;;;;;;4.00;2.60;;;;;;;-0.47;96.79;94729.71;108865;1251;22555;-80
2023/11/25 06:48:11;;;;;;;3.90;2.30;;;;;;;-0.49;96.45;94734.80;108838;1266;22546;-80
2023/11/25 06:50:44;;;;;;;2.20;1.60;;;;;;;-0.49;96.31;94742.73;108802;1272;22541;-80
2023/11/25 06:53:17;;;;;;;1.40;1.20;;;;;;;-0.54;96.26;94740.63;108830;1272;22536;-80
2023/11/25 06:55:48;;;;;;;4.90;2.50;;;;;;;-0.62;96.71;94724.13;108884;1265;23828;-80
2023/11/25 06:58:21;;;;;;;2.20;1.90;;;;;;;-0.76;97.59;94742.95;108881;1267;24016;-80
2023/11/25 07:00:53;;;;;;;2.70;1.90;;;;;;;-0.80;96.99;94760.90;108913;1272;22513;-80
2023/11/25 07:03:25;;;;;;;2.10;1.80;;;;;;;-0.85;97.34;94766.79;108791;1272;24209;-80
2023/11/25 07:06:00;;;;;;;4.00;2.10;;;;;;;-0.91;97.12;94769.52;108840;1269;25406;-80
2023/11/25 07:08:33;;;;;;;3.40;2.40;;;;;;;-0.93;96.99;94777.93;108895;1266;22514;-80
2023/11/25 07:11:05;;;;;;;6.90;2.70;;;;;;;-0.92;96.73;94783.61;108857;1272;25353;-80
2023/11/25 07:13:41;;;;;;;2.40;1.90;;;;;;;-0.93;96.69;94783.60;108852;1272;22520;-80
2023/11/25 07:16:13;;;;;;;5.30;2.90;;;;;;;-0.90;96.70;94784.76;108808;1272;25197;-80
2023/11/25 07:18:46;;;;;;;5.70;3.40;;;;;;;-0.91;96.86;94788.24;108861;1272;22554;-80
2023/11/25 07:21:19;;;;;;;6.20;3.60;;;;;;;-0.85;96.77;94795.66;108812;1272;22565;-80
2023/11/25 07:23:53;;;;;;;4.40;3.00;;;;;;;-0.81;96.45;94807.67;108847;1269;22869;-80
2023/11/25 07:26:29;;;;;;;6.20;3.90;;;;;;;-0.77;96.40;94807.37;108829;1272;22599;-80
2023/11/25 07:29:09;;;;;;;5.50;3.30;;;;;;;-0.76;96.29;94812.78;108855;1272;26544;-80
2023/11/25 07:31:42;;;;;;;7.00;4.10;;;;;;;-0.84;96.19;94817.32;108825;1249;22531;-80
2023/11/25 07:34:15;;;;;;;4.80;3.80;;;;;;;-0.84;96.11;94825.55;108881;1269;22544;-80
2023/11/25 07:36:48;;;;;;;3.80;2.40;;;;;;;-0.78;96.38;94831.71;108829;1272;22510;-80
2023/11/25 07:39:23;;;;;;;5.90;4.20;;;;;;;-0.77;95.92;94838.80;108818;1272;23255;-80
2023/11/25 07:41:59;;;;;;;6.50;4.20;;;;;;;-0.81;96.05;94838.27;108802;1272;25437;-80
2023/11/25 07:44:31;;;;;;;4.10;2.80;;;;;;;-0.82;95.90;94849.18;108860;1271;22540;-80
2023/11/25 07:47:04;;;;;;;7.20;3.70;;;;;;;-0.84;95.90;94839.58;108862;1272;22523;-80
2023/11/25 07:49:36;;;;;;;4.30;2.80;;;;;;;-0.83;95.73;94844.39;108825;1269;23875;-80
2023/11/25 07:52:09;;;;;;;5.30;3.00;;;;;;;-0.89;95.77;94851.25;108833;1266;23906;-79
2023/11/25 07:54:40;;;;;;;6.10;2.70;;;;;;;-0.92;95.64;94860.02;108822;1272;22514;-80
2023/11/25 07:57:14;;;;;;;6.00;4.00;;;;;;;-0.93;95.79;94859.09;108880;1272;25300;-79
2023/11/25 07:59:45;;;;;;;5.70;4.00;;;;;;;-0.91;95.86;94864.61;108872;1266;22527;-80
2023/11/25 08:02:17;;;;;;;4.10;2.60;;;;;;;-0.83;95.96;94855.82;108795;1272;24231;-80
2023/11/25 08:04:48;;;;;;;5.80;2.60;;;;;;;-0.86;95.50;94862.19;108819;1272;22507;-80
2023/11/25 08:07:19;;;;;;;3.70;2.70;;;;;;;-0.87;95.50;94871.77;108822;1263;22631;-79
2023/11/25 08:09:56;;;;;;;6.50;3.60;;;;;;;-0.80;95.66;94872.86;108841;1272;22537;-80
2023/11/25 08:12:30;;;;;;;5.60;3.50;;;;;;;-0.67;95.72;94873.11;108802;1272;22514;-79
2023/11/25 08:15:02;;;;;;;4.70;3.10;;;;;;;-0.55;95.61;94881.20;108867;1272;22553;-79
2023/11/25 08:17:34;;;;;;;4.00;2.30;;;;;;;-0.45;95.22;94880.31;108920;1269;24117;-79
2023/11/25 08:20:08;;;;;;;5.60;3.70;;;;;;;-0.52;94.41;94881.38;108830;1272;25543;-79
2023/11/25 08:22:43;;;;;;;4.30;3.00;;;;;;;-0.52;93.82;94889.14;108818;1251;22623;-79
2023/11/25 08:25:15;;;;;;;5.70;2.20;;;;;;;-0.60;93.38;94895.48;108810;1272;22511;-79
2023/11/25 08:27:51;;;;;;;4.10;2.90;;;;;;;-0.64;93.10;94894.21;108821;1269;22551;-79
2023/11/25 08:30:22;;;;;;;4.20;2.90;;;;;;;-0.65;92.99;94901.12;108856;1266;25412;-79
2023/11/25 08:32:53;;;;;;;2.60;2.00;;;;;;;-0.68;92.41;94902.40;108832;1269;22530;-79
2023/11/25 08:35:24;;;;;;;4.70;3.20;;;;;;;-0.72;92.19;94906.05;108822;1269;22543;-79
2023/11/25 08:37:58;;;;;;;4.00;3.20;;;;;;;-0.71;92.45;94909.25;108826;1272;22754;-79
2023/11/25 08:40:34;;;;;;;4.70;2.80;;;;;;;-0.75;91.93;94910.88;108851;1267;22513;-79
2023/11/25 08:43:11;;;;;;;6.20;3.10;;;;;;;-0.85;91.35;94924.38;108803;1269;22548;-79
2023/11/25 08:45:47;;;;;;;5.30;3.00;;;;;;;-0.87;91.49;94926.74;108869;1272;22576;-79
2023/11/25 08:48:20;;;;;;;3.70;2.10;;;;;;;-0.89;90.81;94937.71;108805;1269;22510;-79
2023/11/25 08:50:52;;;;;;;5.90;2.40;;;;;;;-0.93;90.51;94940.02;108818;1272;22511;-79
2023/11/25 08:53:29;;;;;;;4.30;2.90;;;;;;;-0.97;90.00;94947.34;108786;1272;22562;-80
2023/11/25 08:56:02;;;;;;;5.30;2.60;;;;;;;-0.94;90.11;94951.05;108826;1272;24402;-79
2023/11/25 08:58:33;;;;;;;17.10;2.80;;;;;;;-0.93;90.15;94949.02;108799;1272;22506;-80
2023/11/25 09:01:08;;;;;;;4.40;2.60;;;;;;;-0.93;89.86;94958.45;108820;1272;22525;-80
2023/11/25 09:03:39;;;;;;;5.90;2.60;;;;;;;-0.88;89.68;94955.87;108805;1266;23833;-79
2023/11/25 09:06:13;;;;;;;7.10;3.30;;;;;;;-0.93;89.51;94959.44;108808;1272;22514;-79
2023/11/25 09:08:44;;;;;;;5.80;3.10;;;;;;;-0.94;89.21;94967.48;108890;1266;22793;-79
2023/11/25 09:11:18;;;;;;;4.00;2.80;;;;;;;-0.91;89.50;94969.64;108838;1269;22514;-79
2023/11/25 09:13:51;;;;;;;3.60;2.40;;;;;;;-0.87;89.36;94972.11;108816;1260;33493;-79
2023/11/25 09:16:26;;;;;;;6.10;3.70;;;;;;;-0.83;89.34;94978.88;108830;1272;22521;-80
2023/11/25 09:19:00;;;;;;;6.20;3.50;;;;;;;-0.84;89.37;94978.80;108818;1267;25444;-80
2023/11/25 09:21:36;;;;;;;4.00;3.10;;;;;;;-0.89;89.21;94980.73;108873;1272;24334;-79
2023/11/25 09:24:10;;;;;;;9.90;4.00;;;;;;;-0.93;89.04;94983.73;108653;1272;175717;-80
2023/11/25 09:26:42;;;;;;;5.70;3.10;;;;;;;-0.97;88.92;94991.02;108782;1272;22525;-79
2023/11/25 09:29:15;;;;;;;6.30;3.90;;;;;;;-1.02;88.57;94989.14;108790;1272;22561;-80
2023/11/25 09:31:46;;;;;;;4.90;2.50;;;;;;;-1.06;88.74;94995.98;108794;1272;22513;-80
2023/11/25 09:34:19;;;;;;;7.20;2.70;;;;;;;-1.15;88.18;94995.92;108837;1266;22558;-80
2023/11/25 09:36:53;;;;;;;6.70;3.50;;;;;;;-1.21;88.55;94995.50;108839;1272;22533;-80
2023/11/25 09:39:24;;;;;;;6.40;3.20;;;;;;;-1.21;88.11;95002.89;108849;1269;22536;-80
2023/11/25 09:41:58;;;;;;;7.00;3.90;;;;;;;-1.23;88.52;94998.09;108801;1272;23672;-80
2023/11/25 09:44:32;;;;;;;6.70;4.40;;;;;;;-1.30;88.74;95011.31;108817;1269;22528;-80
2023/11/25 09:47:08;;;;;;;5.20;3.40;;;;;;;-1.34;89.09;95014.91;108893;1269;24176;-80
2023/11/25 09:49:40;;;;;;;4.80;3.20;;;;;;;-1.36;89.36;95008.85;108837;1272;22517;-80
2023/11/25 09:52:19;;;;;;;4.70;2.80;;;;;;;-1.41;89.37;95015.48;108808;1269;22521;-80
2023/11/25 09:54:57;;;;;;;7.20;4.40;;;;;;;-1.47;89.19;95018.70;108817;1272;22518;-80
2023/11/25 09:57:32;;;;;;;7.20;4.00;;;;;;;-1.47;89.39;95022.80;108850;1272;22510;-81
2023/11/25 10:00:17;;;;;;;5.00;3.10;;;;;;;-1.45;89.57;95023.23;108861;1272;24262;-80
2023/11/25 10:02:56;;;;;;;3.70;2.30;;;;;;;-1.44;89.53;95023.61;108811;1272;22521;-80
2023/11/25 10:05:31;;;;;;;4.00;2.60;;;;;;;-1.36;89.24;95029.02;108796;1266;22540;-80
2023/11/25 10:08:04;;;;;;;6.70;3.50;;;;;;;-1.33;88.87;95033.31;108814;1272;25421;-80
2023/11/25 10:10:40;;;;;;;5.70;2.70;;;;;;;-1.27;89.27;95031.31;108825;1272;22517;-80
2023/11/25 10:13:21;;;;;;;4.70;3.10;;;;;;;-1.26;88.74;95033.45;108794;1272;22955;-80
2023/11/25 10:15:55;;;;;;;6.50;3.30;;;;;;;-1.23;88.78;95034.95;108852;1272;23296;-80
2023/11/25 10:18:26;;;;;;;5.90;2.50;;;;;;;-1.21;88.64;95033.78;108803;1266;22532;-80
2023/11/25 10:21:00;;;;;;;7.80;4.00;;;;;;;-1.18;87.94;95030.73;108841;1272;22980;-80
2023/11/25 10:23:37;;;;;;;7.60;3.30;;;;;;;-1.13;87.79;95031.05;108845;1272;22533;-80
2023/11/25 10:26:16;;;;;;;7.60;3.90;;;;;;;-1.07;87.46;95025.50;108838;1272;25407;-81
2023/11/25 10:28:51;;;;;;;9.00;3.30;;;;;;;-1.04;87.24;95027.09;108828;1272;23808;-80
2023/11/25 10:31:23;;;;;;;7.50;4.50;;;;;;;-1.02;86.86;95020.40;108760;1266;22537;-80
2023/11/25 10:34:00;;;;;;;4.70;3.20;;;;;;;-1.00;86.96;95028.38;108808;1272;22524;-80
2023/11/25 10:36:36;;;;;;;5.20;2.50;;;;;;;-1.02;86.71;95031.52;108826;1269;22514;-80
2023/11/25 10:39:09;;;;;;;7.80;2.20;;;;;;;-1.11;86.33;95041.80;108788;1272;25300;-80
2023/11/25 10:41:50;;;;;;;4.70;3.40;;;;;;;-1.25;86.29;95041.52;108788;1272;25424;-80
2023/11/25 10:44:23;;;;;;;7.60;4.20;;;;;;;-1.35;86.99;95038.65;108826;1269;22527;-80
2023/11/25 10:46:56;;;;;;;6.40;3.90;;;;;;;-1.37;87.51;95036.85;108809;1272;22543;-81
2023/11/25 10:49:32;;;;;;;5.80;4.00;;;;;;;-1.33;87.68;95033.16;108816;1266;23980;-80
2023/11/25 10:52:11;;;;;;;6.90;3.00;;;;;;;-1.30;87.40;95028.10;108831;1263;22533;-80
2023/11/25 10:54:49;;;;;;;4.30;3.00;;;;;;;-1.27;87.25;95027.52;108846;1272;25447;-80
2023/11/25 10:57:23;;;;;;;5.50;2.50;;;;;;;-1.21;86.84;95024.84;108809;1272;25885;-80
2023/11/25 10:59:58;;;;;;;5.50;2.70;;;;;;;-1.09;86.61;95025.73;108819;1272;22532;-80
2023/11/25 11:02:36;;;;;;;8.00;5.10;;;;;;;-0.96;86.51;95026.08;108889;1269;22499;-80
2023/11/25 11:05:10;;;;;;;7.80;3.70;;;;;;;-0.74;85.98;95021.30;108869;1272;23848;-80
2023/11/25 11:07:56;;;;;;;6.10;3.70;;;;;;;-0.60;85.63;95028.35;108827;1269;22511;-80
2023/11/25 11:10:41;;;;;;;5.60;3.30;;;;;;;-0.51;85.61;95030.52;108860;1272;25515;-81
2023/11/25 11:13:13;;;;;;;5.50;3.70;;;;;;;-0.35;85.89;95033.90;108803;1272;23929;-80
2023/11/25 11:15:48;;;;;;;6.40;3.40;;;;;;;-0.07;85.80;95037.28;108787;1269;24308;-80
2023/11/25 11:18:27;;;;;;;5.30;3.20;;;;;;;0.18;85.76;95043.30;108819;1266;22534;-80
2023/11/25 11:21:02;;;;;;;5.50;3.50;;;;;;;0.28;84.97;95044.71;108801;1272;22537;-81
2023/11/25 11:23:37;;;;;;;4.80;3.20;;;;;;;0.37;84.96;95040.48;108809;1272;24294;-80
2023/11/25 11:26:31;;;;;;;4.40;3.10;;;;;;;0.59;85.33;95050.14;108802;1269;22514;-80
2023/11/25 11:29:14;;;;;;;4.40;2.80;;;;;;;0.90;85.28;95050.13;108806;1272;22511;-80
2023/11/25 11:31:59;;;;;;;4.60;2.50;;;;;;;1.02;84.37;95052.26;108767;1272;22716;-80
2023/11/25 11:34:35;;;;;;;6.60;2.90;;;;;;;0.67;81.70;95052.16;108812;1272;22513;-80
2023/11/25 11:37:10;;;;;;;7.70;3.70;;;;;;;0.29;79.79;95051.76;108859;1272;23391;-80
2023/11/25 11:39:58;;;;;;;8.30;4.30;;;;;;;0.05;78.93;95052.95;108842;1269;24520;-80
2023/11/25 11:42:39;;;;;;;4.20;2.50;;;;;;;-0.06;79.64;95050.62;108751;1269;24285;-80
2023/11/25 11:45:18;;;;;;;12.90;6.10;;;;;;;-0.10;79.82;95048.79;108831;1269;22562;-80
2023/11/25 11:47:57;;;;;;;6.10;3.20;;;;;;;-0.13;80.27;95038.66;108850;1266;25286;-80
2023/11/25 11:50:31;;;;;;;6.00;3.60;;;;;;;-0.21;80.38;95036.61;108789;1272;23832;-81
2023/11/25 11:53:18;;;;;;;6.60;3.60;;;;;;;-0.20;80.72;95037.40;108826;1272;25940;-80
2023/11/25 11:55:58;;;;;;;6.10;3.80;;;;;;;-0.07;81.21;95031.20;108814;1272;26586;-80
2023/11/25 11:58:35;;;;;;;8.20;2.90;;;;;;;0.12;81.39;95026.11;108816;1272;22531;-80
2023/11/25 12:01:15;;;;;;;6.80;3.00;;;;;;;0.22;81.04;95025.85;108773;1272;25514;-80
2023/11/25 12:03:46;;;;;;;7.70;4.10;;;;;;;0.28;81.00;95027.86;108788;1266;22634;-80
2023/11/25 12:06:21;;;;;;;8.40;4.00;;;;;;;0.34;80.84;95025.77;108856;1266;22895;-80
2023/11/25 12:08:54;;;;;;;4.80;2.60;;;;;;;0.38;80.72;95019.99;108817;1272;24032;-80